Terminal Aerodrome Forecast
Issued by NWS Spokane, WA

Home | Current Version | Previous Version | Text Only | Print | Product List | Glossary On
Versions: 1 2 3 4 5 6 7 8 9 10 11 12 13 14 15 16 17 18 19 20 21 22 23 24 25 26 27 28 29 30 31 32 33 34
630
FTUS46 KOTX 092214 AAC
TAFLWS
TAF AMD
KLWS 092214Z 0922/1018 30004KT 5SM -SN BR FEW004 BKN008
     FM100100 11004KT 4SM -RASN SCT015 BKN025
     FM101200 21006KT 3SM -RASN OVC015
     FM101500 24004KT 6SM -SN OVC025=

USA.gov is the U.S. government's official web portal to all federal, state and local government web resources and services.